Time;durP1;ratioP1;P1;durP2;ratioP2;P2;SDS_P1;SDS_P2;PMS_P1;PMS_P2;Temp;Humidity;BMP_temperature;BMP_pressure;BME280_temperature;BME280_humidity;BME280_pressure;Samples;Min_cycle;Max_cycle;Signal;HPM_P1;HPM_P2
2023/07/22 00:01:49;;;;;;;7.95;4.22;;;24.50;99.90;;;;;;5090868;28;20047;-52
2023/07/22 00:04:53;;;;;;;11.77;4.03;;;24.50;99.90;;;;;;5091465;28;20043;-50
2023/07/22 00:07:57;;;;;;;6.88;3.50;;;24.50;99.90;;;;;;5091195;28;20047;-54
2023/07/22 00:11:01;;;;;;;8.45;4.03;;;24.50;99.90;;;;;;5091243;28;20513;-51
2023/07/22 00:14:06;;;;;;;9.70;4.28;;;24.50;99.90;;;;;;5090781;28;20047;-51
2023/07/22 00:17:10;;;;;;;7.57;3.72;;;24.50;99.90;;;;;;5090878;28;20042;-55
2023/07/22 00:20:14;;;;;;;11.73;4.20;;;24.50;99.90;;;;;;5091264;28;20349;-51
2023/07/22 00:23:19;;;;;;;9.27;4.10;;;24.40;99.90;;;;;;5090586;28;20047;-57
2023/07/22 00:26:23;;;;;;;6.80;3.70;;;24.40;99.90;;;;;;5090650;28;20039;-55
2023/07/22 00:29:27;;;;;;;11.90;4.10;;;24.40;99.90;;;;;;5071526;28;20047;-51
2023/07/22 00:32:32;;;;;;;10.30;4.10;;;24.40;99.90;;;;;;5050571;28;20040;-55
2023/07/22 00:35:35;;;;;;;9.95;4.15;;;24.30;99.90;;;;;;5038128;28;20044;-51
2023/07/22 00:38:39;;;;;;;9.13;4.28;;;24.30;99.90;;;;;;5050558;28;20405;-52
2023/07/22 00:41:44;;;;;;;13.57;4.10;;;24.20;99.90;;;;;;5050110;28;20044;-53
2023/07/22 00:44:50;;;;;;;9.38;4.13;;;24.30;99.90;;;;;;5049446;28;20526;-51
2023/07/22 00:47:54;;;;;;;10.45;4.20;;;24.30;99.90;;;;;;5050157;28;20514;-54
2023/07/22 00:50:58;;;;;;;22.00;4.53;;;24.30;99.90;;;;;;5050453;28;20043;-51
2023/07/22 00:54:03;;;;;;;12.27;4.30;;;24.30;99.90;;;;;;5049133;28;20048;-52
2023/07/22 00:57:09;;;;;;;9.35;3.90;;;24.30;99.90;;;;;;5049909;28;20044;-52
2023/07/22 01:00:15;;;;;;;10.43;4.88;;;24.30;99.90;;;;;;5050236;28;20048;-54
2023/07/22 01:03:20;;;;;;;8.15;4.63;;;24.30;99.90;;;;;;5049998;28;20530;-55
2023/07/22 01:06:29;;;;;;;8.88;4.03;;;24.20;99.90;;;;;;5048706;28;20052;-52
2023/07/22 01:09:40;;;;;;;9.18;4.22;;;24.20;99.90;;;;;;5049996;28;20063;-52
2023/07/22 01:12:44;;;;;;;8.50;4.68;;;24.20;99.90;;;;;;5049027;28;20036;-53
2023/07/22 01:15:49;;;;;;;10.10;3.80;;;24.10;99.90;;;;;;5069434;28;20046;-54
2023/07/22 01:18:54;;;;;;;7.70;3.78;;;24.30;99.90;;;;;;5080385;28;20039;-51
2023/07/22 01:22:07;;;;;;;11.27;4.18;;;24.30;99.90;;;;;;5070872;28;20517;-52
2023/07/22 01:25:12;;;;;;;11.27;4.22;;;24.30;99.90;;;;;;5077214;28;20050;-53
2023/07/22 01:28:16;;;;;;;8.77;4.00;;;24.20;99.90;;;;;;5065600;28;20051;-50
2023/07/22 01:31:20;;;;;;;8.75;4.45;;;24.20;99.90;;;;;;5076777;28;20050;-55
2023/07/22 01:34:24;;;;;;;8.68;4.22;;;24.20;99.90;;;;;;5089673;28;20513;-53
2023/07/22 01:37:28;;;;;;;11.45;4.60;;;24.20;99.90;;;;;;5089872;28;20054;-51
2023/07/22 01:40:32;;;;;;;12.43;4.00;;;24.10;99.90;;;;;;5089696;28;20525;-51
2023/07/22 01:43:36;;;;;;;10.80;3.90;;;24.00;99.90;;;;;;5089597;28;20097;-54
2023/07/22 01:46:41;;;;;;;9.48;4.50;;;23.90;99.90;;;;;;5077136;28;20540;-54
2023/07/22 01:49:45;;;;;;;10.10;4.32;;;23.80;99.90;;;;;;5089965;28;20047;-54
2023/07/22 01:52:50;;;;;;;11.02;4.65;;;23.90;99.90;;;;;;5077098;28;20047;-53
2023/07/22 01:55:54;;;;;;;15.15;5.05;;;23.80;99.90;;;;;;5089843;28;20059;-52
2023/07/22 01:58:58;;;;;;;8.82;4.65;;;23.70;99.90;;;;;;5077030;28;20035;-56
2023/07/22 02:02:03;;;;;;;11.15;5.05;;;23.60;99.90;;;;;;5076772;28;20051;-56
2023/07/22 02:05:07;;;;;;;9.10;4.97;;;23.40;99.90;;;;;;5089716;28;20074;-52
2023/07/22 02:08:11;;;;;;;13.30;4.47;;;23.30;99.90;;;;;;5089374;28;20047;-51
2023/07/22 02:11:16;;;;;;;9.50;4.40;;;23.30;99.90;;;;;;5080772;28;20043;-52
2023/07/22 02:14:20;;;;;;;9.35;4.57;;;23.30;99.90;;;;;;5093971;28;20043;-55
2023/07/22 02:17:24;;;;;;;12.50;4.63;;;23.20;99.90;;;;;;5093718;28;20039;-52
2023/07/22 02:20:28;;;;;;;13.68;4.95;;;23.20;99.90;;;;;;5081451;28;20046;-53
2023/07/22 02:23:33;;;;;;;10.57;4.80;;;23.10;99.90;;;;;;5080798;28;20046;-50
2023/07/22 02:26:38;;;;;;;11.77;5.00;;;23.10;99.90;;;;;;5093361;28;20070;-52
2023/07/22 02:29:42;;;;;;;13.00;4.68;;;23.10;99.90;;;;;;5093511;28;20065;-53
2023/07/22 02:32:46;;;;;;;10.50;5.47;;;23.10;99.90;;;;;;5080582;28;20047;-55
2023/07/22 02:35:51;;;;;;;10.75;4.72;;;23.10;99.90;;;;;;5080947;28;20051;-51
2023/07/22 02:38:55;;;;;;;14.32;5.35;;;23.10;99.90;;;;;;5080017;28;20051;-52
2023/07/22 02:41:58;;;;;;;15.80;5.30;;;23.20;99.90;;;;;;5092741;28;20051;-54
2023/07/22 02:45:04;;;;;;;17.08;5.38;;;23.30;99.90;;;;;;5093169;28;20039;-53
2023/07/22 02:48:09;;;;;;;15.80;4.88;;;23.40;99.90;;;;;;5074245;28;20044;-54
2023/07/22 02:51:13;;;;;;;20.75;9.75;;;23.40;99.90;;;;;;5084249;28;20047;-50
2023/07/22 02:54:16;;;;;;;26.38;11.23;;;23.40;99.90;;;;;;5080110;28;20063;-50
2023/07/22 02:57:20;;;;;;;18.92;7.70;;;23.40;99.90;;;;;;5080165;28;20059;-51
2023/07/22 03:00:25;;;;;;;16.23;6.35;;;23.40;99.90;;;;;;5092937;28;20043;-51
2023/07/22 03:03:29;;;;;;;11.80;4.85;;;23.40;99.90;;;;;;5079581;28;20055;-54
2023/07/22 03:06:33;;;;;;;12.95;5.35;;;23.40;99.90;;;;;;5080118;28;20425;-54
2023/07/22 03:09:37;;;;;;;11.43;5.68;;;23.40;99.90;;;;;;5092199;28;20051;-50
2023/07/22 03:12:41;;;;;;;10.18;5.13;;;23.40;99.90;;;;;;5079634;28;20517;-50
2023/07/22 03:15:45;;;;;;;12.40;5.65;;;23.40;99.90;;;;;;5092567;28;20047;-52
2023/07/22 03:18:49;;;;;;;14.23;5.50;;;23.50;99.90;;;;;;5079553;28;20059;-55
2023/07/22 03:21:53;;;;;;;14.48;5.70;;;23.40;99.90;;;;;;5076429;28;20035;-52
2023/07/22 03:24:57;;;;;;;14.43;5.68;;;23.40;99.90;;;;;;5085499;28;20573;-56
2023/07/22 03:28:06;;;;;;;14.02;5.32;;;23.40;99.90;;;;;;5075146;28;20058;-50
2023/07/22 03:31:10;;;;;;;17.63;5.63;;;23.50;99.90;;;;;;5090526;28;20043;-51
2023/07/22 03:34:14;;;;;;;9.65;5.22;;;23.40;99.90;;;;;;5092074;28;20410;-51
2023/07/22 03:37:20;;;;;;;13.02;5.50;;;23.40;99.90;;;;;;5082860;28;20043;-52
2023/07/22 03:40:28;;;;;;;14.48;5.75;;;23.30;99.90;;;;;;5079053;28;20047;-55
2023/07/22 03:43:32;;;;;;;16.63;5.20;;;23.30;99.90;;;;;;5091731;28;20053;-56
2023/07/22 03:46:36;;;;;;;12.95;5.40;;;23.30;99.90;;;;;;5091668;28;20043;-51
2023/07/22 03:49:40;;;;;;;19.55;5.28;;;23.20;99.90;;;;;;5078769;28;20035;-54
2023/07/22 03:52:44;;;;;;;18.02;5.47;;;23.20;99.90;;;;;;5091516;28;20047;-53
2023/07/22 03:55:49;;;;;;;19.38;5.60;;;23.20;99.90;;;;;;5089568;28;20490;-52
2023/07/22 03:58:53;;;;;;;15.98;5.93;;;23.20;99.90;;;;;;5083560;28;20513;-53
2023/07/22 04:01:57;;;;;;;13.98;5.78;;;23.20;99.90;;;;;;5079198;28;20047;-52
2023/07/22 04:05:01;;;;;;;14.65;6.82;;;23.30;99.90;;;;;;5079338;28;20055;-54
2023/07/22 04:08:05;;;;;;;15.23;5.22;;;23.30;99.90;;;;;;5091349;28;20058;-52
2023/07/22 04:11:09;;;;;;;22.15;5.70;;;23.30;99.90;;;;;;5091556;28;20047;-54
2023/07/22 04:14:13;;;;;;;16.48;5.75;;;23.30;99.90;;;;;;5091929;28;20039;-51
2023/07/22 04:17:17;;;;;;;18.08;6.18;;;23.30;99.90;;;;;;5081619;28;20365;-51
2023/07/22 04:20:24;;;;;;;24.40;6.00;;;23.40;99.90;;;;;;5082262;28;20047;-54
2023/07/22 04:23:27;;;;;;;21.20;5.97;;;23.40;99.90;;;;;;5091055;28;20051;-55
2023/07/22 04:26:31;;;;;;;14.27;5.80;;;23.40;99.90;;;;;;5091151;28;20047;-53
2023/07/22 04:29:35;;;;;;;17.55;5.45;;;23.50;99.90;;;;;;5085188;28;20036;-51
2023/07/22 04:32:44;;;;;;;16.27;6.18;;;23.60;99.90;;;;;;5049222;28;20039;-51
2023/07/22 04:35:48;;;;;;;8.93;4.88;;;23.50;99.90;;;;;;5051098;28;20044;-55
2023/07/22 04:38:52;;;;;;;13.63;5.25;;;23.10;99.90;;;;;;5049356;28;20039;-57
2023/07/22 04:41:56;;;;;;;12.60;5.57;;;23.00;99.90;;;;;;5050722;28;20056;-54
2023/07/22 04:45:00;;;;;;;12.65;6.07;;;23.10;99.90;;;;;;5050825;28;20044;-52
2023/07/22 04:48:04;;;;;;;13.80;5.53;;;23.30;99.90;;;;;;5050690;28;20051;-51
2023/07/22 04:51:08;;;;;;;15.18;5.28;;;23.00;99.90;;;;;;5050413;28;20048;-51
2023/07/22 04:54:12;;;;;;;14.68;5.65;;;23.00;99.90;;;;;;5050471;28;20057;-54
2023/07/22 04:57:18;;;;;;;12.85;5.22;;;24.50;99.90;;;;;;5050327;28;20048;-51
2023/07/22 05:00:22;;;;;;;11.70;5.05;;;25.70;99.90;;;;;;5050107;28;20047;-51
2023/07/22 05:03:26;;;;;;;14.57;5.88;;;26.30;99.90;;;;;;5086950;22;20047;-59
2023/07/22 05:06:30;;;;;;;9.35;4.15;;;26.60;99.90;;;;;;5082824;28;20051;-61
2023/07/22 05:09:36;;;;;;;7.40;4.43;;;26.80;99.90;;;;;;5090139;28;20047;-62
2023/07/22 05:12:41;;;;;;;12.80;6.05;;;27.90;99.90;;;;;;5090228;28;20039;-62
2023/07/22 05:15:46;;;;;;;16.00;5.90;;;26.90;99.90;;;;;;5089905;28;20050;-58
2023/07/22 05:18:50;;;;;;;13.70;5.80;;;28.10;99.90;;;;;;5089891;28;20055;-60
2023/07/22 05:21:55;;;;;;;13.73;5.90;;;28.70;99.90;;;;;;5089534;28;20055;-62
2023/07/22 05:24:59;;;;;;;13.80;5.68;;;29.00;99.90;;;;;;5089714;28;20047;-60
2023/07/22 05:28:03;;;;;;;16.55;5.70;;;29.60;99.90;;;;;;5089591;28;20051;-60
2023/07/22 05:31:07;;;;;;;10.98;5.20;;;30.00;99.90;;;;;;5089589;28;20604;-61
2023/07/22 05:34:12;;;;;;;12.07;6.28;;;30.30;99.90;;;;;;5089665;28;20047;-57
2023/07/22 05:37:16;;;;;;;12.52;5.75;;;30.80;99.90;;;;;;5089748;28;20418;-59
2023/07/22 05:40:20;;;;;;;13.57;5.40;;;31.50;99.90;;;;;;5089449;28;20055;-61
2023/07/22 05:43:24;;;;;;;13.05;5.57;;;31.50;99.90;;;;;;5089381;28;20055;-63
2023/07/22 05:46:28;;;;;;;11.35;4.88;;;29.80;99.90;;;;;;5089478;28;20403;-62
2023/07/22 05:49:33;;;;;;;15.68;5.53;;;30.10;99.90;;;;;;5089775;28;20043;-61
2023/07/22 05:52:37;;;;;;;13.23;6.18;;;30.00;99.90;;;;;;5089510;28;20055;-61
2023/07/22 05:55:41;;;;;;;16.05;6.55;;;30.70;99.90;;;;;;5089999;28;20402;-59
2023/07/22 05:58:45;;;;;;;12.00;5.85;;;31.40;99.90;;;;;;5084353;28;20043;-60
2023/07/22 06:01:49;;;;;;;17.52;5.72;;;31.50;99.90;;;;;;5089035;28;20513;-59
2023/07/22 06:04:53;;;;;;;12.32;4.85;;;31.00;99.90;;;;;;5089223;28;20062;-59
2023/07/22 06:07:57;;;;;;;17.02;5.60;;;30.90;99.90;;;;;;5089068;28;20521;-59
2023/07/22 06:11:01;;;;;;;10.65;5.10;;;30.20;99.90;;;;;;5088965;28;20055;-61
2023/07/22 06:14:06;;;;;;;11.10;5.72;;;31.00;99.90;;;;;;5089168;28;20043;-59
2023/07/22 06:17:10;;;;;;;10.98;5.55;;;31.50;99.90;;;;;;5089520;28;20043;-60
2023/07/22 06:20:14;;;;;;;11.82;4.97;;;32.00;99.90;;;;;;5088672;28;20047;-62
2023/07/22 06:23:19;;;;;;;8.27;4.85;;;32.40;99.90;;;;;;5088761;28;20133;-62
2023/07/22 06:26:23;;;;;;;10.20;4.50;;;33.10;99.70;;;;;;5076608;28;20047;-61
2023/07/22 06:29:27;;;;;;;8.90;4.40;;;33.50;98.80;;;;;;5089086;28;20497;-63
2023/07/22 06:32:31;;;;;;;10.27;4.75;;;32.80;99.50;;;;;;5088442;28;20529;-63
2023/07/22 06:35:35;;;;;;;14.30;5.30;;;33.80;98.80;;;;;;5089056;28;20218;-61
2023/07/22 06:38:39;;;;;;;13.45;5.15;;;33.00;98.60;;;;;;5089045;28;20051;-61
2023/07/22 06:41:43;;;;;;;10.38;4.82;;;32.90;98.60;;;;;;5088956;28;20413;-61
2023/07/22 06:44:47;;;;;;;9.32;4.50;;;33.70;98.20;;;;;;5088978;28;20047;-61
2023/07/22 06:47:51;;;;;;;15.05;4.70;;;34.50;97.40;;;;;;5088833;28;20051;-61
2023/07/22 06:50:55;;;;;;;13.75;4.95;;;35.60;96.70;;;;;;5088665;28;20043;-59
2023/07/22 06:53:59;;;;;;;13.50;4.38;;;36.40;95.40;;;;;;5088943;28;20055;-61
2023/07/22 06:57:05;;;;;;;12.93;4.32;;;36.90;94.90;;;;;;5092387;28;20047;-63
2023/07/22 07:00:10;;;;;;;7.97;4.68;;;37.50;94.30;;;;;;5092844;28;20054;-61
2023/07/22 07:03:14;;;;;;;11.40;5.10;;;38.10;93.70;;;;;;5092156;28;20529;-62
2023/07/22 07:06:18;;;;;;;10.55;4.40;;;38.10;93.20;;;;;;5092492;28;20047;-63
2023/07/22 07:09:22;;;;;;;11.75;3.85;;;38.70;92.80;;;;;;5092417;28;20043;-62
2023/07/22 07:12:27;;;;;;;11.63;4.03;;;39.10;91.90;;;;;;5092278;28;20036;-61
2023/07/22 07:15:30;;;;;;;17.15;4.57;;;39.30;91.20;;;;;;5092234;28;20054;-60
2023/07/22 07:18:34;;;;;;;13.88;4.47;;;39.00;91.10;;;;;;5092307;28;20059;-61
2023/07/22 07:21:38;;;;;;;10.32;3.97;;;38.00;91.80;;;;;;5091559;28;20047;-61
2023/07/22 07:24:43;;;;;;;9.38;3.97;;;35.90;93.90;;;;;;5092257;28;20525;-61
2023/07/22 07:27:47;;;;;;;9.27;4.80;;;34.60;94.60;;;;;;5091841;28;20047;-59
2023/07/22 07:30:51;;;;;;;11.00;4.53;;;34.80;94.50;;;;;;5091936;28;20043;-62
2023/07/22 07:33:55;;;;;;;8.27;4.68;;;35.30;94.50;;;;;;5091688;28;20038;-62
2023/07/22 07:37:00;;;;;;;10.90;4.22;;;33.50;95.60;;;;;;5091983;28;20043;-58
2023/07/22 07:40:04;;;;;;;17.23;4.60;;;32.80;96.50;;;;;;5091768;28;20525;-59
2023/07/22 07:43:08;;;;;;;9.25;4.45;;;33.30;96.60;;;;;;5091455;28;20418;-60
2023/07/22 07:46:26;;;;;;;14.68;4.57;;;34.90;94.90;;;;;;5091757;28;20436;-60
2023/07/22 07:49:30;;;;;;;13.75;4.70;;;36.40;93.60;;;;;;5091487;28;20046;-60
2023/07/22 07:52:34;;;;;;;12.40;5.18;;;35.70;92.80;;;;;;5090743;28;20031;-58
2023/07/22 07:55:38;;;;;;;14.95;4.68;;;35.30;93.10;;;;;;5091845;28;20509;-59
2023/07/22 07:58:42;;;;;;;9.38;5.03;;;35.30;93.80;;;;;;5091756;28;20047;-61
2023/07/22 08:01:47;;;;;;;10.95;4.18;;;36.10;92.10;;;;;;5091146;28;20050;-61
2023/07/22 08:04:51;;;;;;;10.82;4.72;;;38.00;91.00;;;;;;5091421;28;20051;-62
2023/07/22 08:07:55;;;;;;;11.40;4.15;;;38.70;89.50;;;;;;5090231;28;20043;-60
2023/07/22 08:11:08;;;;;;;11.23;4.35;;;39.80;88.40;;;;;;5091341;28;20047;-61
2023/07/22 08:14:12;;;;;;;7.18;3.70;;;41.00;86.50;;;;;;5091309;28;20047;-61
2023/07/22 08:17:16;;;;;;;10.35;4.00;;;42.70;84.50;;;;;;5091400;28;20051;-62
2023/07/22 08:20:21;;;;;;;12.20;4.20;;;43.50;81.70;;;;;;5091002;28;20043;-63
2023/07/22 08:23:25;;;;;;;10.55;3.92;;;42.20;80.60;;;;;;5090663;28;20047;-62
2023/07/22 08:26:30;;;;;;;9.52;4.03;;;42.70;81.50;;;;;;5091181;28;20509;-61
2023/07/22 08:29:34;;;;;;;9.75;4.63;;;40.30;83.90;;;;;;5091328;28;20043;-63
2023/07/22 08:32:38;;;;;;;14.40;4.43;;;37.90;85.50;;;;;;5090571;28;20039;-62
2023/07/22 08:35:42;;;;;;;12.38;4.30;;;38.20;87.00;;;;;;5090848;28;20039;-59
2023/07/22 08:38:47;;;;;;;9.35;4.45;;;39.30;83.90;;;;;;5091046;28;20398;-60
2023/07/22 08:41:52;;;;;;;8.48;3.95;;;40.80;81.60;;;;;;5090741;28;20051;-62
2023/07/22 08:45:00;;;;;;;7.63;4.13;;;42.40;80.20;;;;;;5090561;28;20422;-62
2023/07/22 08:48:07;;;;;;;7.57;3.30;;;43.50;78.30;;;;;;5090667;28;20047;-63
2023/07/22 08:51:18;;;;;;;15.95;4.65;;;44.50;77.40;;;;;;5090173;28;20047;-59
2023/07/22 08:54:23;;;;;;;9.48;3.80;;;45.30;75.50;;;;;;5089866;28;20426;-61
2023/07/22 08:57:29;;;;;;;11.25;3.75;;;45.60;74.60;;;;;;5090375;28;20100;-60
2023/07/22 09:00:34;;;;;;;9.02;3.63;;;46.10;73.70;;;;;;5090684;28;20043;-61
2023/07/22 09:03:40;;;;;;;7.97;3.95;;;46.80;73.00;;;;;;5089874;28;20055;-61
2023/07/22 09:06:46;;;;;;;7.80;3.80;;;47.30;71.90;;;;;;5090465;28;20054;-60
2023/07/22 09:09:51;;;;;;;11.63;4.13;;;44.80;72.80;;;;;;5090382;28;20513;-62
2023/07/22 09:12:56;;;;;;;13.60;4.57;;;43.60;73.10;;;;;;5090046;28;20051;-61
2023/07/22 09:16:01;;;;;;;12.32;4.05;;;44.30;73.10;;;;;;5090447;28;20055;-60
2023/07/22 09:19:05;;;;;;;12.13;4.15;;;45.80;71.70;;;;;;5090418;28;20047;-62
2023/07/22 09:22:09;;;;;;;8.35;4.10;;;46.40;70.40;;;;;;5090064;28;20046;-61
2023/07/22 09:25:24;;;;;;;12.93;3.58;;;46.70;71.20;;;;;;5090338;28;20055;-61
2023/07/22 09:28:50;;;;;;;11.80;3.80;;;47.00;69.70;;;;;;5090090;28;20047;-62
2023/07/22 09:31:54;;;;;;;8.88;4.00;;;47.20;69.60;;;;;;5089514;28;20039;-62
2023/07/22 09:34:58;;;;;;;8.23;4.13;;;47.10;68.90;;;;;;5089738;28;20046;-60
2023/07/22 09:38:02;;;;;;;8.32;4.15;;;45.00;69.20;;;;;;5089685;28;20213;-63
2023/07/22 09:41:06;;;;;;;13.00;4.05;;;44.90;70.00;;;;;;5089794;28;20047;-61
2023/07/22 09:44:12;;;;;;;9.82;4.70;;;43.90;70.50;;;;;;5089515;28;20431;-60
2023/07/22 09:47:15;;;;;;;11.25;4.88;;;40.80;70.70;;;;;;5089685;28;20050;-60
2023/07/22 09:50:21;;;;;;;10.68;4.70;;;41.40;70.50;;;;;;5089422;28;20051;-62
2023/07/22 09:53:25;;;;;;;10.02;3.90;;;40.70;71.00;;;;;;5088671;28;20406;-59
2023/07/22 09:56:30;;;;;;;9.55;4.55;;;43.30;71.90;;;;;;5089881;28;20526;-60
2023/07/22 09:59:34;;;;;;;8.18;4.20;;;46.00;69.30;;;;;;5089878;28;20043;-62
2023/07/22 10:02:42;;;;;;;9.13;3.90;;;45.90;68.20;;;;;;5089186;28;20529;-61
2023/07/22 10:05:50;;;;;;;12.20;4.28;;;45.20;68.30;;;;;;5089624;28;20043;-59
2023/07/22 10:08:57;;;;;;;5.50;3.50;;;46.30;68.30;;;;;;5089132;28;20039;-63
2023/07/22 10:12:03;;;;;;;8.23;3.70;;;47.00;67.00;;;;;;5089081;28;20047;-59
2023/07/22 10:15:08;;;;;;;10.32;4.25;;;46.60;67.00;;;;;;5089118;28;20462;-60
2023/07/22 10:18:13;;;;;;;8.30;3.80;;;46.00;68.00;;;;;;5097783;28;20058;-61
2023/07/22 10:21:18;;;;;;;9.07;4.20;;;46.50;67.80;;;;;;5088484;28;20058;-62
2023/07/22 10:24:23;;;;;;;9.07;3.97;;;46.50;67.90;;;;;;5088883;28;20051;-60
2023/07/22 10:27:28;;;;;;;13.77;3.95;;;44.80;69.20;;;;;;5089258;28;20043;-61
2023/07/22 10:30:32;;;;;;;8.60;4.00;;;42.10;71.50;;;;;;5096982;28;20039;-58
2023/07/22 10:33:36;;;;;;;6.55;4.03;;;44.40;69.60;;;;;;5086046;28;20039;-63
2023/07/22 10:36:40;;;;;;;10.27;4.00;;;45.30;68.60;;;;;;5093257;28;20517;-62
2023/07/22 10:39:44;;;;;;;8.85;3.78;;;47.70;68.00;;;;;;5092879;28;20039;-63
2023/07/22 10:43:03;;;;;;;6.70;3.72;;;48.00;65.30;;;;;;5092845;28;20426;-61
2023/07/22 10:46:12;;;;;;;11.82;4.35;;;46.10;66.30;;;;;;5093122;28;20055;-61
2023/07/22 10:49:17;;;;;;;10.23;4.40;;;45.40;65.30;;;;;;5093003;28;20043;-61
2023/07/22 10:52:53;;;;;;;8.43;3.70;;;46.00;66.50;;;;;;5092354;28;20047;-63
2023/07/22 10:56:11;;;;;;;5.63;3.70;;;46.50;63.60;;;;;;5080561;28;20042;-59
2023/07/22 10:59:25;;;;;;;6.57;3.60;;;47.10;63.20;;;;;;5092732;28;20039;-61
2023/07/22 11:02:32;;;;;;;7.40;3.95;;;46.40;63.30;;;;;;5094040;28;20055;-63
2023/07/22 11:05:52;;;;;;;5.85;4.13;;;47.20;61.70;;;;;;5030357;28;20072;-54
2023/07/22 11:08:56;;;;;;;5.63;4.47;;;43.40;62.60;;;;;;5033221;28;20049;-50
2023/07/22 11:12:18;;;;;;;11.48;4.50;;;43.20;59.70;;;;;;5013996;28;20045;-50
2023/07/22 11:15:22;;;;;;;7.68;4.65;;;40.40;63.40;;;;;;4994155;28;20057;-53
2023/07/22 11:18:42;;;;;;;8.40;4.10;;;42.00;62.80;;;;;;4994473;28;20049;-54
2023/07/22 11:21:47;;;;;;;6.50;4.72;;;41.80;62.90;;;;;;4993993;28;20053;-55
2023/07/22 11:24:52;;;;;;;10.10;4.65;;;41.30;63.60;;;;;;4993561;28;20050;-51
2023/07/22 11:27:57;;;;;;;7.90;4.80;;;42.90;62.90;;;;;;4993831;28;20054;-52
2023/07/22 11:31:01;;;;;;;13.30;4.20;;;44.50;61.20;;;;;;5000411;28;20515;-52
2023/07/22 11:34:05;;;;;;;7.57;4.18;;;44.30;60.90;;;;;;5012719;28;20041;-56
2023/07/22 11:37:09;;;;;;;9.38;4.45;;;44.20;61.30;;;;;;5013312;28;20037;-54
2023/07/22 11:40:13;;;;;;;9.27;4.20;;;44.30;60.50;;;;;;5013049;28;20421;-55
2023/07/22 11:43:17;;;;;;;6.03;4.28;;;44.30;60.60;;;;;;5011390;28;20037;-57
2023/07/22 11:46:21;;;;;;;8.82;4.55;;;44.20;60.80;;;;;;5012733;28;20056;-58
2023/07/22 11:49:31;;;;;;;8.05;4.22;;;43.90;61.00;;;;;;5012693;28;20049;-56
2023/07/22 11:52:36;;;;;;;6.55;4.55;;;44.60;60.30;;;;;;5012797;28;20048;-56
2023/07/22 11:55:41;;;;;;;6.53;4.65;;;39.50;64.50;;;;;;5012605;28;20519;-54
2023/07/22 11:58:49;;;;;;;8.63;4.55;;;40.30;63.90;;;;;;5012709;28;20057;-54
2023/07/22 12:01:53;;;;;;;11.02;4.18;;;41.30;63.70;;;;;;5012598;28;20056;-57
2023/07/22 12:05:03;;;;;;;7.18;4.20;;;42.10;63.50;;;;;;5012269;28;20072;-57
2023/07/22 12:08:07;;;;;;;;;;;42.90;62.30;;;;;;5012846;28;20049;-53
2023/07/22 12:11:25;;;;;;;12.32;4.50;;;42.70;63.80;;;;;;5012530;28;19963;-53
2023/07/22 12:14:35;;;;;;;9.75;4.72;;;42.60;63.30;;;;;;5012502;28;20049;-54
2023/07/22 12:17:56;;;;;;;7.13;4.70;;;42.40;63.00;;;;;;5012189;28;20049;-56
2023/07/22 12:21:03;;;;;;;10.18;4.70;;;41.40;63.70;;;;;;5012210;28;20041;-54
2023/07/22 12:24:07;;;;;;;6.25;4.18;;;40.50;64.80;;;;;;5012256;28;20053;-51
2023/07/22 12:27:11;;;;;;;9.70;5.00;;;40.80;64.10;;;;;;5012305;28;20060;-51
2023/07/22 12:30:15;;;;;;;8.18;4.47;;;41.20;63.80;;;;;;5012112;28;20040;-56
2023/07/22 12:33:20;;;;;;;10.60;4.80;;;41.30;64.50;;;;;;5012078;28;20041;-55
2023/07/22 12:36:24;;;;;;;8.88;4.35;;;40.30;63.90;;;;;;5011973;28;20435;-52
2023/07/22 12:39:29;;;;;;;7.93;4.55;;;40.10;64.00;;;;;;5012273;28;20048;-51
2023/07/22 12:42:33;;;;;;;8.90;4.35;;;40.60;64.40;;;;;;5011707;28;20052;-50
2023/07/22 12:45:36;;;;;;;6.90;4.28;;;41.10;63.50;;;;;;5011514;28;20045;-57
2023/07/22 12:48:40;;;;;;;11.88;5.03;;;40.30;63.10;;;;;;5011761;28;20432;-56
2023/07/22 12:51:44;;;;;;;9.15;5.05;;;39.00;64.10;;;;;;5011644;28;20428;-55
2023/07/22 12:54:48;;;;;;;7.75;4.75;;;38.50;66.10;;;;;;5011575;28;20503;-51
2023/07/22 12:57:53;;;;;;;9.65;5.00;;;36.40;64.80;;;;;;5011800;28;20045;-52
2023/07/22 13:00:58;;;;;;;12.43;5.10;;;36.30;67.30;;;;;;5011891;28;20113;-54
2023/07/22 13:04:02;;;;;;;8.73;5.10;;;36.80;65.70;;;;;;5011653;28;20049;-57
2023/07/22 13:07:07;;;;;;;8.52;4.72;;;36.40;67.50;;;;;;5011299;28;20045;-52
2023/07/22 13:10:14;;;;;;;9.25;4.82;;;36.40;67.10;;;;;;5011777;28;20044;-52
2023/07/22 13:13:20;;;;;;;8.75;5.15;;;36.10;66.90;;;;;;5011317;28;20041;-53
2023/07/22 13:16:23;;;;;;;7.80;5.32;;;35.00;69.50;;;;;;5011212;28;20040;-56
2023/07/22 13:19:27;;;;;;;7.35;4.90;;;34.50;70.30;;;;;;5011474;28;20052;-54
2023/07/22 13:22:31;;;;;;;7.43;4.82;;;34.50;70.20;;;;;;5011169;28;20412;-55
2023/07/22 13:25:35;;;;;;;7.10;4.60;;;35.10;68.60;;;;;;5010803;28;20041;-53
2023/07/22 13:28:39;;;;;;;10.93;5.15;;;35.70;69.40;;;;;;5011124;28;20053;-51
2023/07/22 13:31:43;;;;;;;11.55;5.30;;;35.10;70.60;;;;;;5010743;28;20045;-54
2023/07/22 13:34:47;;;;;;;6.47;4.28;;;35.10;69.00;;;;;;5010914;28;20504;-53
2023/07/22 13:37:51;;;;;;;4.97;4.03;;;35.50;70.30;;;;;;5011175;28;20507;-52
2023/07/22 13:40:55;;;;;;;8.25;4.63;;;36.10;70.20;;;;;;5011276;28;20040;-53
2023/07/22 13:43:59;;;;;;;8.68;4.82;;;36.30;69.00;;;;;;5011023;28;20064;-53
2023/07/22 13:47:03;;;;;;;11.07;4.75;;;36.60;68.70;;;;;;5010947;28;20053;-51
2023/07/22 13:50:08;;;;;;;7.85;4.78;;;36.80;68.50;;;;;;5011327;28;20057;-56
2023/07/22 13:53:12;;;;;;;9.07;4.88;;;36.50;70.20;;;;;;5011014;28;20041;-56
2023/07/22 13:56:15;;;;;;;9.45;4.50;;;36.00;69.10;;;;;;5011005;28;20053;-55
2023/07/22 13:59:20;;;;;;;6.82;4.47;;;36.90;69.50;;;;;;5010215;28;20058;-52
2023/07/22 14:02:24;;;;;;;9.30;4.13;;;37.20;67.00;;;;;;5010218;28;20040;-51
2023/07/22 14:05:28;;;;;;;9.95;5.10;;;36.40;70.60;;;;;;5009597;28;20057;-52
2023/07/22 14:08:33;;;;;;;6.50;4.43;;;35.70;69.70;;;;;;5010023;28;20052;-52
2023/07/22 14:11:37;;;;;;;9.30;4.53;;;36.10;69.80;;;;;;5009999;28;20412;-56
2023/07/22 14:14:40;;;;;;;8.70;4.97;;;36.40;70.00;;;;;;5009787;28;20536;-53
2023/07/22 14:17:44;;;;;;;11.02;4.53;;;36.50;67.80;;;;;;5009860;28;20053;-53
2023/07/22 14:20:49;;;;;;;10.38;4.40;;;36.00;68.90;;;;;;5009864;28;20095;-57
2023/07/22 14:23:53;;;;;;;19.15;5.25;;;36.20;68.20;;;;;;5009799;28;20049;-56
2023/07/22 14:26:56;;;;;;;9.45;4.93;;;34.80;69.60;;;;;;5009590;28;20516;-55
2023/07/22 14:30:03;;;;;;;10.63;4.82;;;35.50;68.00;;;;;;5009245;28;20049;-52
2023/07/22 14:33:07;;;;;;;6.80;4.65;;;35.10;69.30;;;;;;5008928;28;20053;-55
2023/07/22 14:36:11;;;;;;;10.48;4.80;;;35.40;70.00;;;;;;5009685;28;20405;-56
2023/07/22 14:39:16;;;;;;;13.95;5.18;;;35.50;68.40;;;;;;5009465;28;20049;-53
2023/07/22 14:42:20;;;;;;;15.57;5.00;;;35.80;68.80;;;;;;5009538;28;20416;-55
2023/07/22 14:45:24;;;;;;;14.07;4.55;;;36.20;68.50;;;;;;5009268;28;20049;-54
2023/07/22 14:48:28;;;;;;;10.95;4.80;;;36.40;69.30;;;;;;5009173;28;20041;-52
2023/07/22 14:51:32;;;;;;;10.35;4.80;;;36.40;68.70;;;;;;5009412;28;20056;-55
2023/07/22 14:54:36;;;;;;;10.65;4.50;;;36.30;68.70;;;;;;5009341;28;20041;-56
2023/07/22 14:57:40;;;;;;;8.27;4.68;;;35.80;68.40;;;;;;5009210;28;20049;-52
2023/07/22 15:00:44;;;;;;;8.57;4.80;;;35.80;69.90;;;;;;5009431;28;20053;-54
2023/07/22 15:03:48;;;;;;;12.07;4.95;;;35.80;69.80;;;;;;5009233;28;20053;-53
2023/07/22 15:06:52;;;;;;;10.50;5.07;;;36.00;69.90;;;;;;5008968;28;20409;-57
2023/07/22 15:09:58;;;;;;;11.57;4.55;;;35.90;67.90;;;;;;5008882;28;20061;-54
2023/07/22 15:13:02;;;;;;;9.05;4.95;;;35.40;69.10;;;;;;5008841;28;20436;-56
2023/07/22 15:16:06;;;;;;;13.40;4.40;;;35.30;68.30;;;;;;5009213;28;20049;-52
2023/07/22 15:19:10;;;;;;;11.30;4.20;;;35.40;68.80;;;;;;5012277;28;20417;-52
2023/07/22 15:22:14;;;;;;;9.40;4.60;;;35.20;67.50;;;;;;5012440;28;20083;-52
2023/07/22 15:25:18;;;;;;;7.07;4.63;;;35.20;68.60;;;;;;5012679;28;20053;-52
2023/07/22 15:28:22;;;;;;;6.85;4.22;;;35.30;68.40;;;;;;5012417;28;20045;-53
2023/07/22 15:31:26;;;;;;;13.52;4.70;;;35.40;68.20;;;;;;5012184;28;20049;-54
2023/07/22 15:34:30;;;;;;;8.57;4.45;;;35.30;68.50;;;;;;5012384;28;20508;-53
2023/07/22 15:37:34;;;;;;;9.82;4.30;;;35.10;68.80;;;;;;5011733;28;20497;-53
2023/07/22 15:40:38;;;;;;;14.02;4.55;;;35.10;69.20;;;;;;5012227;28;20046;-54
2023/07/22 15:43:42;;;;;;;10.07;4.38;;;35.00;68.80;;;;;;5011876;28;20416;-56
2023/07/22 15:46:46;;;;;;;10.93;4.78;;;34.80;69.30;;;;;;5012014;28;20045;-52
2023/07/22 15:49:50;;;;;;;11.27;4.45;;;34.70;69.70;;;;;;5011816;28;20049;-55
2023/07/22 15:52:54;;;;;;;13.98;5.15;;;34.50;71.30;;;;;;5011514;28;20072;-52
2023/07/22 15:55:58;;;;;;;11.07;5.68;;;34.10;73.10;;;;;;5011726;28;20049;-56